sensor_id;sensor_type;location;lat;lon;timestamp;temperature;humidity
25352;DHT22;13304;48.464;8.712;2023-05-29T00:02:10;18.00;58.50
25352;DHT22;13304;48.464;8.712;2023-05-29T00:04:35;17.90;58.70
25352;DHT22;13304;48.464;8.712;2023-05-29T00:07:03;17.90;58.80
25352;DHT22;13304;48.464;8.712;2023-05-29T00:09:28;17.90;58.90
25352;DHT22;13304;48.464;8.712;2023-05-29T00:11:55;17.80;58.90
25352;DHT22;13304;48.464;8.712;2023-05-29T00:14:21;17.80;58.90
25352;DHT22;13304;48.464;8.712;2023-05-29T00:16:48;17.80;59.00
25352;DHT22;13304;48.464;8.712;2023-05-29T00:19:15;17.70;59.00
25352;DHT22;13304;48.464;8.712;2023-05-29T00:21:45;17.70;59.10
25352;DHT22;13304;48.464;8.712;2023-05-29T00:24:14;17.60;59.10
25352;DHT22;13304;48.464;8.712;2023-05-29T00:26:40;17.60;59.20
25352;DHT22;13304;48.464;8.712;2023-05-29T00:29:06;17.60;59.20
25352;DHT22;13304;48.464;8.712;2023-05-29T00:31:32;17.50;59.30
25352;DHT22;13304;48.464;8.712;2023-05-29T00:33:58;17.50;59.50
25352;DHT22;13304;48.464;8.712;2023-05-29T00:36:24;17.50;59.70
25352;DHT22;13304;48.464;8.712;2023-05-29T00:38:51;17.40;59.80
25352;DHT22;13304;48.464;8.712;2023-05-29T00:41:16;17.40;59.80
25352;DHT22;13304;48.464;8.712;2023-05-29T00:43:43;17.40;59.90
25352;DHT22;13304;48.464;8.712;2023-05-29T00:46:10;17.40;60.00
25352;DHT22;13304;48.464;8.712;2023-05-29T00:48:38;17.30;60.00
25352;DHT22;13304;48.464;8.712;2023-05-29T00:51:04;17.30;59.90
25352;DHT22;13304;48.464;8.712;2023-05-29T00:53:31;17.30;60.10
25352;DHT22;13304;48.464;8.712;2023-05-29T00:55:58;17.30;59.80
25352;DHT22;13304;48.464;8.712;2023-05-29T00:58:25;17.20;59.80
25352;DHT22;13304;48.464;8.712;2023-05-29T01:00:53;17.20;59.60
25352;DHT22;13304;48.464;8.712;2023-05-29T01:03:20;17.20;59.40
25352;DHT22;13304;48.464;8.712;2023-05-29T01:05:45;17.20;59.40
25352;DHT22;13304;48.464;8.712;2023-05-29T01:08:14;17.20;59.30
25352;DHT22;13304;48.464;8.712;2023-05-29T01:10:40;17.30;59.30
25352;DHT22;13304;48.464;8.712;2023-05-29T01:13:23;17.30;59.20
25352;DHT22;13304;48.464;8.712;2023-05-29T01:16:13;17.30;59.20
25352;DHT22;13304;48.464;8.712;2023-05-29T01:19:07;17.30;58.90
25352;DHT22;13304;48.464;8.712;2023-05-29T01:21:56;17.30;58.90
25352;DHT22;13304;48.464;8.712;2023-05-29T01:27:10;17.30;58.40
25352;DHT22;13304;48.464;8.712;2023-05-29T01:29:39;17.40;58.40
25352;DHT22;13304;48.464;8.712;2023-05-29T01:32:08;17.40;58.40
25352;DHT22;13304;48.464;8.712;2023-05-29T01:34:34;17.40;58.40
25352;DHT22;13304;48.464;8.712;2023-05-29T01:37:00;17.50;58.30
25352;DHT22;13304;48.464;8.712;2023-05-29T01:39:26;17.50;58.30
25352;DHT22;13304;48.464;8.712;2023-05-29T01:41:53;17.50;58.30
25352;DHT22;13304;48.464;8.712;2023-05-29T01:44:20;17.50;58.30
25352;DHT22;13304;48.464;8.712;2023-05-29T01:46:48;17.50;58.30
25352;DHT22;13304;48.464;8.712;2023-05-29T01:49:15;17.40;58.30
25352;DHT22;13304;48.464;8.712;2023-05-29T01:51:41;17.40;58.40
25352;DHT22;13304;48.464;8.712;2023-05-29T01:54:08;17.50;58.50
25352;DHT22;13304;48.464;8.712;2023-05-29T01:56:34;17.40;58.40
25352;DHT22;13304;48.464;8.712;2023-05-29T01:59:02;17.40;58.40
25352;DHT22;13304;48.464;8.712;2023-05-29T02:01:31;17.40;58.50
25352;DHT22;13304;48.464;8.712;2023-05-29T02:03:57;17.30;58.50
25352;DHT22;13304;48.464;8.712;2023-05-29T02:06:23;17.30;58.50
25352;DHT22;13304;48.464;8.712;2023-05-29T02:08:48;17.20;58.50
25352;DHT22;13304;48.464;8.712;2023-05-29T02:11:14;17.20;58.60
25352;DHT22;13304;48.464;8.712;2023-05-29T02:13:41;17.10;58.70
25352;DHT22;13304;48.464;8.712;2023-05-29T02:16:06;17.10;58.90
25352;DHT22;13304;48.464;8.712;2023-05-29T02:18:32;17.00;59.00
25352;DHT22;13304;48.464;8.712;2023-05-29T02:21:00;16.90;59.20
25352;DHT22;13304;48.464;8.712;2023-05-29T02:23:26;16.90;59.20
25352;DHT22;13304;48.464;8.712;2023-05-29T02:25:52;16.80;59.40
25352;DHT22;13304;48.464;8.712;2023-05-29T02:28:18;16.80;59.70
25352;DHT22;13304;48.464;8.712;2023-05-29T02:30:43;16.70;59.80
25352;DHT22;13304;48.464;8.712;2023-05-29T02:33:09;16.70;60.00
25352;DHT22;13304;48.464;8.712;2023-05-29T02:35:36;16.60;60.10
25352;DHT22;13304;48.464;8.712;2023-05-29T02:38:02;16.60;60.50
25352;DHT22;13304;48.464;8.712;2023-05-29T02:40:27;16.60;60.60
25352;DHT22;13304;48.464;8.712;2023-05-29T02:42:53;16.60;60.70
25352;DHT22;13304;48.464;8.712;2023-05-29T02:45:19;16.50;61.60
25352;DHT22;13304;48.464;8.712;2023-05-29T02:47:45;16.50;61.00
25352;DHT22;13304;48.464;8.712;2023-05-29T02:50:11;16.50;61.20
25352;DHT22;13304;48.464;8.712;2023-05-29T02:52:37;16.40;61.20
25352;DHT22;13304;48.464;8.712;2023-05-29T02:55:03;16.40;61.30
25352;DHT22;13304;48.464;8.712;2023-05-29T02:57:29;16.40;61.50
25352;DHT22;13304;48.464;8.712;2023-05-29T02:59:55;16.30;61.40
25352;DHT22;13304;48.464;8.712;2023-05-29T03:02:21;16.30;61.50
25352;DHT22;13304;48.464;8.712;2023-05-29T03:04:47;16.30;61.50
25352;DHT22;13304;48.464;8.712;2023-05-29T03:07:16;16.30;61.70
25352;DHT22;13304;48.464;8.712;2023-05-29T03:09:41;16.20;61.60
25352;DHT22;13304;48.464;8.712;2023-05-29T03:12:07;16.20;61.70
25352;DHT22;13304;48.464;8.712;2023-05-29T03:14:33;16.10;61.80
25352;DHT22;13304;48.464;8.712;2023-05-29T03:17:06;16.10;62.00
25352;DHT22;13304;48.464;8.712;2023-05-29T03:19:32;16.00;62.20
25352;DHT22;13304;48.464;8.712;2023-05-29T03:21:58;16.00;62.00
25352;DHT22;13304;48.464;8.712;2023-05-29T03:24:23;16.00;62.00
25352;DHT22;13304;48.464;8.712;2023-05-29T03:26:50;16.00;62.10
25352;DHT22;13304;48.464;8.712;2023-05-29T03:29:16;15.90;62.30
25352;DHT22;13304;48.464;8.712;2023-05-29T03:31:42;15.90;62.40
25352;DHT22;13304;48.464;8.712;2023-05-29T03:34:08;15.80;62.50
25352;DHT22;13304;48.464;8.712;2023-05-29T03:36:34;15.80;62.70
25352;DHT22;13304;48.464;8.712;2023-05-29T03:39:02;15.80;62.90
25352;DHT22;13304;48.464;8.712;2023-05-29T03:41:28;15.80;63.20
25352;DHT22;13304;48.464;8.712;2023-05-29T03:43:54;15.80;63.20
25352;DHT22;13304;48.464;8.712;2023-05-29T03:46:20;15.80;63.20
25352;DHT22;13304;48.464;8.712;2023-05-29T03:48:45;15.70;63.10
25352;DHT22;13304;48.464;8.712;2023-05-29T03:51:11;15.70;63.20
25352;DHT22;13304;48.464;8.712;2023-05-29T03:53:37;15.70;64.00
25352;DHT22;13304;48.464;8.712;2023-05-29T03:56:03;15.60;63.20
25352;DHT22;13304;48.464;8.712;2023-05-29T03:58:29;15.60;63.30
25352;DHT22;13304;48.464;8.712;2023-05-29T04:00:54;15.60;63.30
25352;DHT22;13304;48.464;8.712;2023-05-29T04:03:20;15.60;63.30
25352;DHT22;13304;48.464;8.712;2023-05-29T04:05:47;15.60;63.50
25352;DHT22;13304;48.464;8.712;2023-05-29T04:08:13;15.60;63.60
25352;DHT22;13304;48.464;8.712;2023-05-29T04:10:39;15.60;63.80
25352;DHT22;13304;48.464;8.712;2023-05-29T04:13:05;15.50;64.00
25352;DHT22;13304;48.464;8.712;2023-05-29T04:15:31;15.50;64.10
25352;DHT22;13304;48.464;8.712;2023-05-29T04:17:59;15.50;64.20
25352;DHT22;13304;48.464;8.712;2023-05-29T04:20:25;15.50;64.50
25352;DHT22;13304;48.464;8.712;2023-05-29T04:22:51;15.50;64.50
25352;DHT22;13304;48.464;8.712;2023-05-29T04:25:17;15.50;64.50
25352;DHT22;13304;48.464;8.712;2023-05-29T04:27:44;15.50;64.50
25352;DHT22;13304;48.464;8.712;2023-05-29T04:30:14;15.40;64.60
25352;DHT22;13304;48.464;8.712;2023-05-29T04:32:40;15.40;64.90
25352;DHT22;13304;48.464;8.712;2023-05-29T04:35:06;15.40;65.00
25352;DHT22;13304;48.464;8.712;2023-05-29T04:37:33;15.40;65.40
25352;DHT22;13304;48.464;8.712;2023-05-29T04:40:08;15.40;65.60
25352;DHT22;13304;48.464;8.712;2023-05-29T04:42:38;15.40;66.00
25352;DHT22;13304;48.464;8.712;2023-05-29T04:45:06;15.50;66.60
25352;DHT22;13304;48.464;8.712;2023-05-29T04:47:35;15.60;66.60
25352;DHT22;13304;48.464;8.712;2023-05-29T04:50:02;15.60;66.80
25352;DHT22;13304;48.464;8.712;2023-05-29T04:52:28;15.70;66.70
25352;DHT22;13304;48.464;8.712;2023-05-29T04:54:59;15.80;66.80
25352;DHT22;13304;48.464;8.712;2023-05-29T04:57:25;15.90;66.50
25352;DHT22;13304;48.464;8.712;2023-05-29T04:59:51;16.00;66.20
25352;DHT22;13304;48.464;8.712;2023-05-29T05:02:17;16.00;66.00
25352;DHT22;13304;48.464;8.712;2023-05-29T05:04:42;16.10;65.90
25352;DHT22;13304;48.464;8.712;2023-05-29T05:07:09;16.10;65.70
25352;DHT22;13304;48.464;8.712;2023-05-29T05:09:35;16.20;65.60
25352;DHT22;13304;48.464;8.712;2023-05-29T05:12:00;16.20;65.40
25352;DHT22;13304;48.464;8.712;2023-05-29T05:14:27;16.30;65.40
25352;DHT22;13304;48.464;8.712;2023-05-29T05:16:53;16.30;65.60
25352;DHT22;13304;48.464;8.712;2023-05-29T05:19:19;16.30;65.60
25352;DHT22;13304;48.464;8.712;2023-05-29T05:21:45;16.30;65.60
25352;DHT22;13304;48.464;8.712;2023-05-29T05:24:11;16.40;65.90
25352;DHT22;13304;48.464;8.712;2023-05-29T05:26:36;16.40;66.30
25352;DHT22;13304;48.464;8.712;2023-05-29T05:29:02;16.40;66.10
25352;DHT22;13304;48.464;8.712;2023-05-29T05:31:28;16.50;66.10
25352;DHT22;13304;48.464;8.712;2023-05-29T05:33:54;16.50;65.90
25352;DHT22;13304;48.464;8.712;2023-05-29T05:36:27;16.60;66.00
25352;DHT22;13304;48.464;8.712;2023-05-29T05:38:53;16.60;66.80
25352;DHT22;13304;48.464;8.712;2023-05-29T05:41:19;16.70;67.60
25352;DHT22;13304;48.464;8.712;2023-05-29T05:43:46;16.70;67.70
25352;DHT22;13304;48.464;8.712;2023-05-29T05:46:12;16.80;67.90
25352;DHT22;13304;48.464;8.712;2023-05-29T05:48:39;16.80;68.00
25352;DHT22;13304;48.464;8.712;2023-05-29T05:51:04;16.90;67.80
25352;DHT22;13304;48.464;8.712;2023-05-29T05:53:31;17.00;67.70
25352;DHT22;13304;48.464;8.712;2023-05-29T05:55:57;17.00;67.50
25352;DHT22;13304;48.464;8.712;2023-05-29T05:58:23;17.10;67.50
25352;DHT22;13304;48.464;8.712;2023-05-29T06:00:48;17.10;67.20
25352;DHT22;13304;48.464;8.712;2023-05-29T06:03:18;17.20;67.50
25352;DHT22;13304;48.464;8.712;2023-05-29T06:05:44;17.20;67.00
25352;DHT22;13304;48.464;8.712;2023-05-29T06:08:15;17.30;67.20
25352;DHT22;13304;48.464;8.712;2023-05-29T06:10:41;17.30;66.70
25352;DHT22;13304;48.464;8.712;2023-05-29T06:13:07;17.40;66.90
25352;DHT22;13304;48.464;8.712;2023-05-29T06:15:32;17.50;65.40
25352;DHT22;13304;48.464;8.712;2023-05-29T06:17:58;17.50;65.10
25352;DHT22;13304;48.464;8.712;2023-05-29T06:20:24;17.60;64.70
25352;DHT22;13304;48.464;8.712;2023-05-29T06:22:49;17.70;64.50
25352;DHT22;13304;48.464;8.712;2023-05-29T06:25:19;17.70;64.10
25352;DHT22;13304;48.464;8.712;2023-05-29T06:27:45;17.80;63.20
25352;DHT22;13304;48.464;8.712;2023-05-29T06:30:12;17.80;63.20
25352;DHT22;13304;48.464;8.712;2023-05-29T06:32:38;17.80;63.40
25352;DHT22;13304;48.464;8.712;2023-05-29T06:35:04;17.90;63.40
25352;DHT22;13304;48.464;8.712;2023-05-29T06:37:31;17.90;62.90
25352;DHT22;13304;48.464;8.712;2023-05-29T06:39:57;18.00;62.50
25352;DHT22;13304;48.464;8.712;2023-05-29T06:42:23;18.00;62.70
25352;DHT22;13304;48.464;8.712;2023-05-29T06:44:49;18.10;62.50
25352;DHT22;13304;48.464;8.712;2023-05-29T06:47:14;18.10;62.50
25352;DHT22;13304;48.464;8.712;2023-05-29T06:49:40;18.20;62.40
25352;DHT22;13304;48.464;8.712;2023-05-29T06:52:07;18.20;62.60
25352;DHT22;13304;48.464;8.712;2023-05-29T06:54:33;18.30;61.90
25352;DHT22;13304;48.464;8.712;2023-05-29T06:56:58;18.40;62.00
25352;DHT22;13304;48.464;8.712;2023-05-29T06:59:24;18.40;62.00
25352;DHT22;13304;48.464;8.712;2023-05-29T07:01:50;18.50;62.00
25352;DHT22;13304;48.464;8.712;2023-05-29T07:04:16;18.50;61.40
25352;DHT22;13304;48.464;8.712;2023-05-29T07:06:44;18.60;61.70
25352;DHT22;13304;48.464;8.712;2023-05-29T07:09:10;18.70;61.80
25352;DHT22;13304;48.464;8.712;2023-05-29T07:11:39;18.70;61.90
25352;DHT22;13304;48.464;8.712;2023-05-29T07:14:05;18.80;62.20
25352;DHT22;13304;48.464;8.712;2023-05-29T07:16:30;18.90;61.70
25352;DHT22;13304;48.464;8.712;2023-05-29T07:18:56;18.90;61.90
25352;DHT22;13304;48.464;8.712;2023-05-29T07:21:22;19.00;61.90
25352;DHT22;13304;48.464;8.712;2023-05-29T07:23:48;19.10;60.90
25352;DHT22;13304;48.464;8.712;2023-05-29T07:26:13;19.10;60.90
25352;DHT22;13304;48.464;8.712;2023-05-29T07:28:39;19.20;60.30
25352;DHT22;13304;48.464;8.712;2023-05-29T07:31:05;19.30;60.80
25352;DHT22;13304;48.464;8.712;2023-05-29T07:33:31;19.30;60.40
25352;DHT22;13304;48.464;8.712;2023-05-29T07:35:56;19.40;60.20
25352;DHT22;13304;48.464;8.712;2023-05-29T07:38:22;19.40;60.20
25352;DHT22;13304;48.464;8.712;2023-05-29T07:40:48;19.40;60.70
25352;DHT22;13304;48.464;8.712;2023-05-29T07:43:14;19.60;61.00
25352;DHT22;13304;48.464;8.712;2023-05-29T07:45:40;19.60;60.50
25352;DHT22;13304;48.464;8.712;2023-05-29T07:48:05;19.70;60.40
25352;DHT22;13304;48.464;8.712;2023-05-29T07:50:31;19.70;59.90
25352;DHT22;13304;48.464;8.712;2023-05-29T07:52:58;19.80;60.00
25352;DHT22;13304;48.464;8.712;2023-05-29T07:55:24;19.80;60.70
25352;DHT22;13304;48.464;8.712;2023-05-29T07:57:50;19.90;60.40
25352;DHT22;13304;48.464;8.712;2023-05-29T08:00:16;20.00;59.40
25352;DHT22;13304;48.464;8.712;2023-05-29T08:02:42;20.00;59.50
25352;DHT22;13304;48.464;8.712;2023-05-29T08:05:09;20.10;58.40
25352;DHT22;13304;48.464;8.712;2023-05-29T08:07:36;20.20;58.40
25352;DHT22;13304;48.464;8.712;2023-05-29T08:10:02;20.20;58.90
25352;DHT22;13304;48.464;8.712;2023-05-29T08:12:28;20.30;59.10
25352;DHT22;13304;48.464;8.712;2023-05-29T08:14:54;20.40;58.80
25352;DHT22;13304;48.464;8.712;2023-05-29T08:17:19;20.40;58.60
25352;DHT22;13304;48.464;8.712;2023-05-29T08:19:49;20.50;59.20
25352;DHT22;13304;48.464;8.712;2023-05-29T08:22:15;20.60;59.20
25352;DHT22;13304;48.464;8.712;2023-05-29T08:24:41;20.70;58.80
25352;DHT22;13304;48.464;8.712;2023-05-29T08:27:07;20.70;58.20
25352;DHT22;13304;48.464;8.712;2023-05-29T08:29:33;20.80;57.80
25352;DHT22;13304;48.464;8.712;2023-05-29T08:31:58;20.80;57.70
25352;DHT22;13304;48.464;8.712;2023-05-29T08:34:24;20.90;57.30
25352;DHT22;13304;48.464;8.712;2023-05-29T08:36:50;20.90;58.00
25352;DHT22;13304;48.464;8.712;2023-05-29T08:39:17;21.00;58.00
25352;DHT22;13304;48.464;8.712;2023-05-29T08:42:01;21.10;58.30
25352;DHT22;13304;48.464;8.712;2023-05-29T08:44:31;21.10;57.10
25352;DHT22;13304;48.464;8.712;2023-05-29T08:47:01;21.20;57.10
25352;DHT22;13304;48.464;8.712;2023-05-29T08:49:29;21.20;57.10
25352;DHT22;13304;48.464;8.712;2023-05-29T08:52:16;21.30;57.30
25352;DHT22;13304;48.464;8.712;2023-05-29T08:54:43;21.30;57.10
25352;DHT22;13304;48.464;8.712;2023-05-29T08:57:10;21.40;57.10
25352;DHT22;13304;48.464;8.712;2023-05-29T08:59:37;21.50;57.60
25352;DHT22;13304;48.464;8.712;2023-05-29T09:02:05;21.50;57.30
25352;DHT22;13304;48.464;8.712;2023-05-29T09:04:31;21.50;57.40
25352;DHT22;13304;48.464;8.712;2023-05-29T09:06:58;21.60;57.40
25352;DHT22;13304;48.464;8.712;2023-05-29T09:09:27;21.60;57.50
25352;DHT22;13304;48.464;8.712;2023-05-29T09:11:53;21.70;57.10
25352;DHT22;13304;48.464;8.712;2023-05-29T09:14:32;21.60;56.80
25352;DHT22;13304;48.464;8.712;2023-05-29T09:16:59;21.80;57.10
25352;DHT22;13304;48.464;8.712;2023-05-29T09:19:25;21.90;56.30
25352;DHT22;13304;48.464;8.712;2023-05-29T09:21:51;21.90;55.80
25352;DHT22;13304;48.464;8.712;2023-05-29T09:24:17;22.00;55.80
25352;DHT22;13304;48.464;8.712;2023-05-29T09:26:52;22.00;55.90
25352;DHT22;13304;48.464;8.712;2023-05-29T09:29:18;22.00;55.40
25352;DHT22;13304;48.464;8.712;2023-05-29T09:31:47;22.10;55.90
25352;DHT22;13304;48.464;8.712;2023-05-29T09:34:13;22.10;55.90
25352;DHT22;13304;48.464;8.712;2023-05-29T09:36:39;22.10;55.40
25352;DHT22;13304;48.464;8.712;2023-05-29T09:39:04;22.20;54.30
25352;DHT22;13304;48.464;8.712;2023-05-29T09:41:44;22.30;53.50
25352;DHT22;13304;48.464;8.712;2023-05-29T09:44:14;22.30;53.60
25352;DHT22;13304;48.464;8.712;2023-05-29T09:46:42;22.30;52.00
25352;DHT22;13304;48.464;8.712;2023-05-29T09:49:13;22.40;50.60
25352;DHT22;13304;48.464;8.712;2023-05-29T09:51:39;22.50;51.20
25352;DHT22;13304;48.464;8.712;2023-05-29T09:54:14;22.50;52.40
25352;DHT22;13304;48.464;8.712;2023-05-29T09:56:42;22.60;51.60
25352;DHT22;13304;48.464;8.712;2023-05-29T09:59:12;22.70;51.10
25352;DHT22;13304;48.464;8.712;2023-05-29T10:01:43;22.70;51.10
25352;DHT22;13304;48.464;8.712;2023-05-29T10:04:10;22.80;50.40
25352;DHT22;13304;48.464;8.712;2023-05-29T10:06:37;22.80;50.80
25352;DHT22;13304;48.464;8.712;2023-05-29T10:09:07;22.90;51.20
25352;DHT22;13304;48.464;8.712;2023-05-29T10:11:37;22.90;48.90
25352;DHT22;13304;48.464;8.712;2023-05-29T10:14:05;23.00;49.20
25352;DHT22;13304;48.464;8.712;2023-05-29T10:16:33;23.00;48.80
25352;DHT22;13304;48.464;8.712;2023-05-29T10:19:06;23.10;46.60
25352;DHT22;13304;48.464;8.712;2023-05-29T10:21:37;23.10;46.20
25352;DHT22;13304;48.464;8.712;2023-05-29T10:24:06;23.20;45.80
25352;DHT22;13304;48.464;8.712;2023-05-29T10:26:36;23.20;46.10
25352;DHT22;13304;48.464;8.712;2023-05-29T10:32:07;23.20;45.60
25352;DHT22;13304;48.464;8.712;2023-05-29T10:37:27;23.30;47.20
25352;DHT22;13304;48.464;8.712;2023-05-29T10:40:03;23.40;45.40
25352;DHT22;13304;48.464;8.712;2023-05-29T10:42:44;23.40;46.60
25352;DHT22;13304;48.464;8.712;2023-05-29T10:45:11;23.50;46.20
25352;DHT22;13304;48.464;8.712;2023-05-29T10:50:47;23.50;46.30
25352;DHT22;13304;48.464;8.712;2023-05-29T10:53:18;23.60;47.80
25352;DHT22;13304;48.464;8.712;2023-05-29T10:55:48;23.60;47.50
25352;DHT22;13304;48.464;8.712;2023-05-29T10:58:18;23.70;47.40
25352;DHT22;13304;48.464;8.712;2023-05-29T11:00:46;23.70;46.80
25352;DHT22;13304;48.464;8.712;2023-05-29T11:03:25;23.70;46.80
25352;DHT22;13304;48.464;8.712;2023-05-29T11:06:07;23.70;47.20
25352;DHT22;13304;48.464;8.712;2023-05-29T11:08:59;23.80;47.60
25352;DHT22;13304;48.464;8.712;2023-05-29T11:13:55;23.90;48.00
25352;DHT22;13304;48.464;8.712;2023-05-29T11:18:51;23.90;48.50
25352;DHT22;13304;48.464;8.712;2023-05-29T11:23:52;24.00;48.20
25352;DHT22;13304;48.464;8.712;2023-05-29T11:26:23;24.00;47.70
25352;DHT22;13304;48.464;8.712;2023-05-29T11:28:49;24.10;48.00
25352;DHT22;13304;48.464;8.712;2023-05-29T11:31:15;24.10;47.90
25352;DHT22;13304;48.464;8.712;2023-05-29T11:33:48;24.10;47.90
25352;DHT22;13304;48.464;8.712;2023-05-29T11:36:21;24.10;48.00
25352;DHT22;13304;48.464;8.712;2023-05-29T11:38:48;24.10;47.90
25352;DHT22;13304;48.464;8.712;2023-05-29T11:41:13;24.20;48.00
25352;DHT22;13304;48.464;8.712;2023-05-29T11:43:42;24.20;48.30
25352;DHT22;13304;48.464;8.712;2023-05-29T11:46:18;24.20;48.60
25352;DHT22;13304;48.464;8.712;2023-05-29T11:48:47;24.20;49.60
25352;DHT22;13304;48.464;8.712;2023-05-29T11:51:14;24.20;48.80
25352;DHT22;13304;48.464;8.712;2023-05-29T11:53:41;24.20;49.10
25352;DHT22;13304;48.464;8.712;2023-05-29T11:56:10;24.30;49.00
25352;DHT22;13304;48.464;8.712;2023-05-29T11:58:39;24.30;48.50
25352;DHT22;13304;48.464;8.712;2023-05-29T12:01:06;24.30;49.00
25352;DHT22;13304;48.464;8.712;2023-05-29T12:03:42;24.40;48.60
25352;DHT22;13304;48.464;8.712;2023-05-29T12:06:09;24.30;47.10
25352;DHT22;13304;48.464;8.712;2023-05-29T12:08:39;24.40;47.00
25352;DHT22;13304;48.464;8.712;2023-05-29T12:11:05;24.40;47.40
25352;DHT22;13304;48.464;8.712;2023-05-29T12:13:31;24.40;48.00
25352;DHT22;13304;48.464;8.712;2023-05-29T12:16:03;24.40;47.20
25352;DHT22;13304;48.464;8.712;2023-05-29T12:18:29;24.40;47.70
25352;DHT22;13304;48.464;8.712;2023-05-29T12:21:00;24.50;47.70
25352;DHT22;13304;48.464;8.712;2023-05-29T12:23:28;24.50;47.30
25352;DHT22;13304;48.464;8.712;2023-05-29T12:25:54;24.50;46.10
25352;DHT22;13304;48.464;8.712;2023-05-29T12:28:20;24.50;44.90
25352;DHT22;13304;48.464;8.712;2023-05-29T12:30:47;24.50;45.10
25352;DHT22;13304;48.464;8.712;2023-05-29T12:33:33;24.60;45.70
25352;DHT22;13304;48.464;8.712;2023-05-29T12:36:07;24.50;45.10
25352;DHT22;13304;48.464;8.712;2023-05-29T12:38:47;24.50;45.00
25352;DHT22;13304;48.464;8.712;2023-05-29T12:41:29;24.60;44.80
25352;DHT22;13304;48.464;8.712;2023-05-29T12:43:57;24.50;45.30
25352;DHT22;13304;48.464;8.712;2023-05-29T12:46:26;24.60;45.30
25352;DHT22;13304;48.464;8.712;2023-05-29T12:48:56;24.60;44.90
25352;DHT22;13304;48.464;8.712;2023-05-29T12:51:28;24.60;44.10
25352;DHT22;13304;48.464;8.712;2023-05-29T12:53:54;24.60;44.00
25352;DHT22;13304;48.464;8.712;2023-05-29T12:56:24;24.70;43.30
25352;DHT22;13304;48.464;8.712;2023-05-29T12:58:52;24.70;43.80
25352;DHT22;13304;48.464;8.712;2023-05-29T13:01:18;24.80;44.60
25352;DHT22;13304;48.464;8.712;2023-05-29T13:03:44;24.80;44.70
25352;DHT22;13304;48.464;8.712;2023-05-29T13:06:10;24.90;44.70
25352;DHT22;13304;48.464;8.712;2023-05-29T13:08:37;24.90;44.60
25352;DHT22;13304;48.464;8.712;2023-05-29T13:11:02;24.90;44.00
25352;DHT22;13304;48.464;8.712;2023-05-29T13:13:28;25.00;44.40
25352;DHT22;13304;48.464;8.712;2023-05-29T13:15:54;25.00;43.70
25352;DHT22;13304;48.464;8.712;2023-05-29T13:18:20;25.00;43.80
25352;DHT22;13304;48.464;8.712;2023-05-29T13:20:46;25.10;43.30
25352;DHT22;13304;48.464;8.712;2023-05-29T13:23:12;25.10;43.30
25352;DHT22;13304;48.464;8.712;2023-05-29T13:25:38;25.10;43.80
25352;DHT22;13304;48.464;8.712;2023-05-29T13:28:04;25.10;43.70
25352;DHT22;13304;48.464;8.712;2023-05-29T13:30:29;25.10;43.00
25352;DHT22;13304;48.464;8.712;2023-05-29T13:32:55;25.10;43.40
25352;DHT22;13304;48.464;8.712;2023-05-29T13:35:21;25.10;43.00
25352;DHT22;13304;48.464;8.712;2023-05-29T13:37:47;25.10;43.30
25352;DHT22;13304;48.464;8.712;2023-05-29T13:40:13;25.10;43.10
25352;DHT22;13304;48.464;8.712;2023-05-29T13:42:39;25.20;42.70
25352;DHT22;13304;48.464;8.712;2023-05-29T13:45:06;25.20;42.50
25352;DHT22;13304;48.464;8.712;2023-05-29T13:47:33;25.20;42.40
25352;DHT22;13304;48.464;8.712;2023-05-29T13:49:59;25.30;42.60
25352;DHT22;13304;48.464;8.712;2023-05-29T13:52:26;25.30;42.20
25352;DHT22;13304;48.464;8.712;2023-05-29T13:54:52;25.30;42.00
25352;DHT22;13304;48.464;8.712;2023-05-29T13:57:18;25.30;40.60
25352;DHT22;13304;48.464;8.712;2023-05-29T13:59:44;25.30;41.00
25352;DHT22;13304;48.464;8.712;2023-05-29T14:02:10;25.30;41.00
25352;DHT22;13304;48.464;8.712;2023-05-29T14:04:36;25.30;40.80
25352;DHT22;13304;48.464;8.712;2023-05-29T14:07:04;25.30;41.60
25352;DHT22;13304;48.464;8.712;2023-05-29T14:09:30;25.30;41.00
25352;DHT22;13304;48.464;8.712;2023-05-29T14:11:58;25.40;40.80
25352;DHT22;13304;48.464;8.712;2023-05-29T14:14:25;25.40;40.60
25352;DHT22;13304;48.464;8.712;2023-05-29T14:16:51;25.40;39.80
25352;DHT22;13304;48.464;8.712;2023-05-29T14:19:18;25.40;39.40
25352;DHT22;13304;48.464;8.712;2023-05-29T14:21:44;25.50;39.40
25352;DHT22;13304;48.464;8.712;2023-05-29T14:24:11;25.40;38.90
25352;DHT22;13304;48.464;8.712;2023-05-29T14:26:37;25.50;40.20
25352;DHT22;13304;48.464;8.712;2023-05-29T14:29:03;25.50;39.70
25352;DHT22;13304;48.464;8.712;2023-05-29T14:31:29;25.60;38.60
25352;DHT22;13304;48.464;8.712;2023-05-29T14:33:56;25.60;38.70
25352;DHT22;13304;48.464;8.712;2023-05-29T14:36:21;25.60;38.80
25352;DHT22;13304;48.464;8.712;2023-05-29T14:38:47;25.60;38.90
25352;DHT22;13304;48.464;8.712;2023-05-29T14:41:14;25.70;39.50
25352;DHT22;13304;48.464;8.712;2023-05-29T14:43:42;25.70;39.60
25352;DHT22;13304;48.464;8.712;2023-05-29T14:46:08;25.80;39.40
25352;DHT22;13304;48.464;8.712;2023-05-29T14:48:34;25.90;39.70
25352;DHT22;13304;48.464;8.712;2023-05-29T14:51:00;26.00;39.00
25352;DHT22;13304;48.464;8.712;2023-05-29T14:53:26;26.00;38.70
25352;DHT22;13304;48.464;8.712;2023-05-29T14:55:52;26.10;38.50
25352;DHT22;13304;48.464;8.712;2023-05-29T14:58:19;26.10;38.20
25352;DHT22;13304;48.464;8.712;2023-05-29T15:00:44;26.20;37.30
25352;DHT22;13304;48.464;8.712;2023-05-29T15:03:10;26.30;37.70
25352;DHT22;13304;48.464;8.712;2023-05-29T15:05:36;26.40;37.50
25352;DHT22;13304;48.464;8.712;2023-05-29T15:08:02;26.60;37.40
25352;DHT22;13304;48.464;8.712;2023-05-29T15:10:28;26.70;36.60
25352;DHT22;13304;48.464;8.712;2023-05-29T15:12:54;26.80;36.20
25352;DHT22;13304;48.464;8.712;2023-05-29T15:15:24;26.90;36.60
25352;DHT22;13304;48.464;8.712;2023-05-29T15:17:50;27.10;36.00
25352;DHT22;13304;48.464;8.712;2023-05-29T15:20:19;27.10;36.30
25352;DHT22;13304;48.464;8.712;2023-05-29T15:22:46;27.10;35.80
25352;DHT22;13304;48.464;8.712;2023-05-29T15:25:12;27.10;35.60
25352;DHT22;13304;48.464;8.712;2023-05-29T15:27:38;27.00;35.60
25352;DHT22;13304;48.464;8.712;2023-05-29T15:30:14;26.90;35.50
25352;DHT22;13304;48.464;8.712;2023-05-29T15:32:41;26.70;35.40
25352;DHT22;13304;48.464;8.712;2023-05-29T15:35:08;26.60;36.50
25352;DHT22;13304;48.464;8.712;2023-05-29T15:37:34;26.50;36.70
25352;DHT22;13304;48.464;8.712;2023-05-29T15:40:00;26.40;36.40
25352;DHT22;13304;48.464;8.712;2023-05-29T15:42:26;26.40;36.30
25352;DHT22;13304;48.464;8.712;2023-05-29T15:44:52;26.20;36.50
25352;DHT22;13304;48.464;8.712;2023-05-29T15:47:18;26.20;36.70
25352;DHT22;13304;48.464;8.712;2023-05-29T15:49:44;26.20;36.50
25352;DHT22;13304;48.464;8.712;2023-05-29T15:52:09;26.40;36.80